Time;durP1;ratioP1;P1;durP2;ratioP2;P2;SDS_P1;SDS_P2;PMS_P1;PMS_P2;Temp;Humidity;BMP_temperature;BMP_pressure;BME280_temperature;BME280_humidity;BME280_pressure;Samples;Min_cycle;Max_cycle;Signal;HPM_P1;HPM_P2
2021/12/01 00:01:10;;;;;;;0.40;0.40;;;6.90;98.40;;;6.90;68.87;97040.63;5031644;28;20053;-42
2021/12/01 00:03:40;;;;;;;0.50;0.50;;;6.80;98.30;;;6.86;68.30;97042.78;5030762;28;20060;-42
2021/12/01 00:06:10;;;;;;;0.50;0.40;;;6.70;98.80;;;6.82;68.79;97041.41;5025057;28;20053;-42
2021/12/01 00:08:39;;;;;;;0.43;0.40;;;6.60;98.90;;;6.78;68.38;97036.56;5030098;28;20045;-42
2021/12/01 00:11:07;;;;;;;0.43;0.33;;;6.50;99.30;;;6.76;68.87;97031.44;5031162;28;20075;-42
2021/12/01 00:13:34;;;;;;;0.20;0.20;;;6.50;99.30;;;6.74;68.73;97030.75;5030706;28;20051;-42
2021/12/01 00:16:03;;;;;;;0.60;0.47;;;6.50;99.50;;;6.70;68.43;97021.47;5024513;28;20049;-44
2021/12/01 00:18:31;;;;;;;2.73;0.70;;;6.40;99.70;;;6.65;68.62;97021.94;5030885;28;20057;-42
2021/12/01 00:20:59;;;;;;;2.00;0.40;;;6.40;99.90;;;6.62;69.08;97024.03;5030121;28;20053;-42
2021/12/01 00:23:27;;;;;;;0.30;0.30;;;6.30;99.90;;;6.57;68.77;97023.66;5029791;28;20061;-42
2021/12/01 00:25:56;;;;;;;0.70;0.50;;;6.30;99.90;;;6.56;68.86;97014.06;5029681;28;20055;-42
2021/12/01 00:28:24;;;;;;;0.33;0.33;;;6.20;99.90;;;6.53;69.23;97012.53;5030796;28;20375;-42
2021/12/01 00:30:53;;;;;;;0.80;0.50;;;6.20;99.90;;;6.54;69.15;97013.41;5030923;28;20045;-42
2021/12/01 00:33:22;;;;;;;0.87;0.50;;;6.30;99.90;;;6.52;68.94;97007.44;5030703;28;20371;-42
2021/12/01 00:35:56;;;;;;;0.50;0.50;;;6.20;99.90;;;6.51;69.20;97014.50;5029378;28;20053;-42
2021/12/01 00:38:25;;;;;;;0.85;0.52;;;6.20;99.90;;;6.51;69.25;97014.50;5029042;28;20245;-42
2021/12/01 00:40:54;;;;;;;0.70;0.40;;;6.20;99.90;;;6.49;68.95;97019.97;5030359;28;20063;-42
2021/12/01 00:43:24;;;;;;;1.30;0.40;;;6.20;99.90;;;6.48;69.31;97010.38;5029598;28;20053;-42
2021/12/01 00:45:58;;;;;;;0.67;0.37;;;6.20;99.90;;;6.44;69.38;96998.44;5029964;28;20054;-42
2021/12/01 00:48:27;;;;;;;0.20;0.20;;;6.10;99.90;;;6.40;69.11;96997.06;5029568;28;20067;-42
2021/12/01 00:50:55;;;;;;;0.60;0.43;;;6.00;99.90;;;6.38;69.85;96990.25;5031388;28;20057;-42
2021/12/01 00:53:23;;;;;;;0.30;0.30;;;6.10;99.90;;;6.37;69.74;96984.16;5030001;28;20071;-42
2021/12/01 00:55:51;;;;;;;0.60;0.47;;;6.10;99.90;;;6.33;69.77;96977.50;5029336;28;20255;-42
2021/12/01 00:58:19;;;;;;;0.67;0.30;;;6.10;99.90;;;6.33;68.97;96987.25;5031139;28;20051;-42
2021/12/01 01:00:49;;;;;;;0.40;0.40;;;6.00;99.90;;;6.32;68.94;96978.50;5030982;28;20385;-42
2021/12/01 01:03:18;;;;;;;2.63;0.60;;;6.10;99.90;;;6.30;69.61;96978.63;5029315;28;20064;-42
2021/12/01 01:05:48;;;;;;;0.50;0.50;;;6.10;99.90;;;6.30;69.65;96981.28;5021881;28;20061;-42
2021/12/01 01:08:17;;;;;;;1.50;0.50;;;6.00;99.90;;;6.28;69.14;96985.03;5029167;28;20043;-42
2021/12/01 01:11:09;;;;;;;0.73;0.63;;;6.10;99.90;;;6.27;69.70;96978.94;5030611;28;20124;-42
2021/12/01 01:16:24;;;;;;;1.10;0.60;;;5.90;99.90;;;6.21;69.41;96976.88;5030067;28;20064;-42
2021/12/01 01:19:03;;;;;;;0.77;0.33;;;5.90;99.90;;;6.18;69.63;96971.88;5029565;28;20064;-42
2021/12/01 01:21:36;;;;;;;0.63;0.40;;;5.90;99.90;;;6.13;69.18;96965.41;5029375;28;20057;-42
2021/12/01 01:24:05;;;;;;;0.47;0.40;;;5.90;99.90;;;6.14;68.96;96965.25;5029131;28;20063;-42
2021/12/01 01:26:35;;;;;;;0.43;0.43;;;6.00;99.90;;;6.11;68.79;96963.75;5028368;28;20251;-42
2021/12/01 01:29:04;;;;;;;0.30;0.30;;;6.00;99.60;;;6.09;68.88;96951.66;5029080;28;20053;-42
2021/12/01 01:31:34;;;;;;;0.87;0.53;;;6.00;99.50;;;6.09;69.25;96962.25;5028165;28;20254;-41
2021/12/01 01:34:04;;;;;;;0.43;0.43;;;5.90;99.30;;;6.09;69.57;96960.44;5027910;28;20389;-41
2021/12/01 01:36:32;;;;;;;0.40;0.40;;;5.90;99.40;;;6.04;68.62;96962.69;5027231;28;20071;-42
2021/12/01 01:39:00;;;;;;;0.50;0.47;;;5.90;99.00;;;6.01;68.89;96964.78;5028400;28;20260;-42
2021/12/01 01:41:28;;;;;;;0.83;0.50;;;5.80;99.30;;;5.92;69.51;96955.91;5025838;28;20087;-41
2021/12/01 01:43:57;;;;;;;0.60;0.60;;;5.70;99.10;;;5.92;68.70;96956.75;5029893;28;20049;-41
2021/12/01 01:46:35;;;;;;;0.67;0.60;;;5.70;99.60;;;5.91;69.11;96957.75;5029070;28;20079;-41
2021/12/01 01:49:09;;;;;;;0.97;0.67;;;5.70;99.30;;;5.86;69.04;96951.22;5028900;28;20045;-42
2021/12/01 01:51:40;;;;;;;1.92;0.80;;;5.70;99.40;;;5.81;69.08;96953.47;5028484;28;20059;-42
2021/12/01 01:54:09;;;;;;;0.63;0.50;;;5.70;99.60;;;5.80;68.98;96946.56;5028059;28;20057;-42
2021/12/01 01:56:37;;;;;;;0.50;0.50;;;5.70;99.40;;;5.81;68.93;96945.56;5029141;28;20041;-42
2021/12/01 01:59:05;;;;;;;0.60;0.50;;;5.70;99.40;;;5.78;69.31;96938.78;5028395;28;20282;-41
2021/12/01 02:01:46;;;;;;;0.73;0.63;;;5.60;99.50;;;5.73;69.02;96935.72;5028714;28;20068;-42
2021/12/01 02:04:18;;;;;;;0.70;0.70;;;5.60;99.40;;;5.72;69.17;96934.91;5028425;28;20045;-42
2021/12/01 02:06:48;;;;;;;1.07;0.70;;;5.70;99.30;;;5.69;69.34;96939.66;5028583;28;20053;-42
2021/12/01 02:09:21;;;;;;;0.77;0.63;;;5.60;99.20;;;5.73;69.59;96917.25;5028895;28;20049;-42
2021/12/01 02:11:57;;;;;;;1.47;1.10;;;5.60;99.40;;;5.75;69.64;96928.50;5028161;28;20057;-42
2021/12/01 02:14:26;;;;;;;0.93;0.60;;;5.50;99.40;;;5.76;69.61;96916.09;5027422;28;20046;-42
2021/12/01 02:16:57;;;;;;;1.63;0.60;;;5.60;99.60;;;5.78;69.01;96920.28;5028000;28;20104;-42
2021/12/01 02:19:26;;;;;;;0.50;0.50;;;5.60;99.60;;;5.78;69.43;96906.22;5029610;28;20373;-42
2021/12/01 02:21:54;;;;;;;0.53;0.50;;;5.60;99.50;;;5.76;68.88;96903.75;5022506;28;20060;-41
2021/12/01 02:24:23;;;;;;;1.23;0.60;;;5.60;99.70;;;5.75;69.48;96899.44;5028270;28;20057;-41
2021/12/01 02:26:52;;;;;;;2.57;0.67;;;5.60;99.50;;;5.77;68.92;96901.94;5027963;28;20053;-41
2021/12/01 02:29:24;;;;;;;0.63;0.63;;;5.60;99.60;;;5.77;69.54;96899.28;5028492;28;20217;-41
2021/12/01 02:31:55;;;;;;;1.13;0.67;;;5.70;99.30;;;5.78;69.00;96885.94;5021412;28;20057;-41
2021/12/01 02:34:25;;;;;;;0.97;0.70;;;5.70;99.00;;;5.71;69.07;96885.69;5027822;28;20260;-42
2021/12/01 02:36:58;;;;;;;1.00;0.60;;;5.70;98.70;;;5.72;68.83;96882.09;5027832;28;20049;-42
2021/12/01 02:39:28;;;;;;;1.35;0.80;;;5.70;98.40;;;5.80;69.51;96883.16;5027356;28;20049;-42
2021/12/01 02:42:01;;;;;;;0.80;0.80;;;5.70;98.80;;;5.82;69.64;96882.00;5028511;28;20599;-41
2021/12/01 02:44:29;;;;;;;0.77;0.70;;;5.70;98.60;;;5.87;68.72;96873.63;5026686;28;20061;-42
2021/12/01 02:47:00;;;;;;;0.80;0.57;;;5.70;98.60;;;5.91;68.68;96867.91;5026366;28;20057;-42
2021/12/01 02:49:28;;;;;;;0.80;0.70;;;5.80;98.70;;;5.93;68.86;96867.72;5028289;28;20050;-42
2021/12/01 02:51:56;;;;;;;1.80;0.60;;;5.80;98.30;;;5.97;68.95;96857.72;5026875;28;20061;-41
2021/12/01 02:54:29;;;;;;;0.83;0.70;;;5.90;98.30;;;5.95;68.86;96854.38;5027177;28;20250;-42
2021/12/01 02:56:59;;;;;;;1.03;0.50;;;5.90;97.80;;;5.97;69.18;96863.88;5027848;28;20045;-42
2021/12/01 02:59:27;;;;;;;1.13;0.70;;;5.90;97.10;;;5.98;68.47;96849.66;5028656;28;20064;-42
2021/12/01 03:01:56;;;;;;;1.47;0.70;;;5.80;97.80;;;6.02;68.63;96840.44;5027604;28;20044;-42
2021/12/01 03:04:25;;;;;;;0.80;0.43;;;5.90;98.00;;;6.04;68.56;96837.66;5026496;28;20059;-42
2021/12/01 03:06:53;;;;;;;0.87;0.77;;;5.90;97.50;;;6.07;68.49;96835.53;5027572;28;20056;-42
2021/12/01 03:09:22;;;;;;;1.03;0.60;;;5.90;97.60;;;6.09;68.94;96827.47;5024941;28;20053;-42
2021/12/01 03:11:50;;;;;;;0.80;0.80;;;5.90;97.80;;;6.12;68.49;96816.56;5027538;28;20049;-41
2021/12/01 03:14:20;;;;;;;0.60;0.60;;;5.90;98.00;;;6.14;68.59;96813.78;5026906;28;20075;-41
2021/12/01 03:16:51;;;;;;;0.73;0.70;;;5.90;98.00;;;6.10;68.73;96815.91;5028291;28;20059;-42
2021/12/01 03:19:19;;;;;;;1.37;0.80;;;5.90;97.70;;;6.08;68.44;96797.53;5023561;28;20050;-42
2021/12/01 03:21:47;;;;;;;1.13;0.77;;;5.90;97.80;;;6.07;68.51;96793.25;5026733;28;20048;-41
2021/12/01 03:24:15;;;;;;;1.93;0.83;;;5.90;97.80;;;6.05;68.75;96795.22;5023462;28;20045;-42
2021/12/01 03:26:43;;;;;;;1.47;0.80;;;5.80;97.40;;;6.01;68.89;96790.38;5026767;28;20369;-41
2021/12/01 03:29:14;;;;;;;1.57;1.10;;;5.70;98.00;;;5.98;68.61;96785.44;5026488;28;20077;-42
2021/12/01 03:31:42;;;;;;;1.33;0.97;;;5.70;98.00;;;5.97;68.31;96791.69;5027553;28;20336;-41
2021/12/01 03:34:11;;;;;;;1.87;1.20;;;5.70;97.80;;;5.98;68.48;96783.59;5022148;28;20053;-41
2021/12/01 03:36:39;;;;;;;1.77;1.00;;;5.70;97.60;;;5.95;68.32;96786.53;5027360;28;20061;-42
2021/12/01 03:39:06;;;;;;;1.43;1.20;;;5.70;97.90;;;5.93;67.95;96777.91;5027233;28;20057;-42
2021/12/01 03:41:34;;;;;;;2.40;1.00;;;5.70;97.70;;;5.94;67.96;96784.03;5025962;28;20056;-41
2021/12/01 03:44:03;;;;;;;1.00;0.90;;;5.80;97.50;;;5.92;68.37;96777.09;5027060;28;20067;-41
2021/12/01 03:46:31;;;;;;;0.73;0.70;;;5.70;97.30;;;5.90;68.38;96783.50;5027419;28;20259;-41
2021/12/01 03:48:59;;;;;;;1.00;0.90;;;5.70;97.30;;;5.91;68.07;96774.59;5026616;28;20053;-42
2021/12/01 03:51:27;;;;;;;0.87;0.83;;;5.70;97.20;;;5.92;68.24;96766.53;5027582;28;20071;-41
2021/12/01 03:53:55;;;;;;;1.57;0.93;;;5.70;97.10;;;5.94;68.22;96774.31;5026259;28;20060;-42
2021/12/01 03:56:23;;;;;;;1.20;0.90;;;5.70;97.10;;;5.94;68.18;96763.72;5027383;28;20075;-42
2021/12/01 03:58:53;;;;;;;1.57;1.17;;;5.80;97.30;;;5.96;68.08;96759.16;5018524;28;20071;-41
2021/12/01 04:01:21;;;;;;;1.20;1.03;;;5.80;96.90;;;5.98;68.48;96764.28;5027263;28;20072;-41
2021/12/01 04:03:49;;;;;;;1.53;1.10;;;5.80;96.80;;;5.98;67.74;96749.25;5026058;28;20061;-41
2021/12/01 04:06:17;;;;;;;1.93;1.03;;;5.80;97.00;;;5.98;68.07;96751.06;5026116;28;20355;-42
2021/12/01 04:08:46;;;;;;;1.00;0.90;;;5.80;97.00;;;5.98;68.42;96741.34;5018636;28;20058;-41
2021/12/01 04:11:14;;;;;;;0.90;0.90;;;5.80;97.00;;;5.98;68.08;96737.88;5026917;28;20053;-41
2021/12/01 04:13:42;;;;;;;1.27;1.13;;;5.70;96.80;;;5.99;68.32;96732.44;5026758;28;20061;-41
2021/12/01 04:16:10;;;;;;;1.90;1.10;;;5.70;97.40;;;5.97;68.47;96728.28;5026412;28;20049;-41
2021/12/01 04:18:39;;;;;;;1.63;1.20;;;5.70;97.30;;;5.95;68.56;96724.94;5027016;28;20049;-42
2021/12/01 04:21:06;;;;;;;1.20;0.90;;;5.70;97.40;;;5.95;68.33;96717.84;5027533;28;20049;-42
2021/12/01 04:23:35;;;;;;;1.57;1.00;;;5.70;97.80;;;5.98;68.06;96722.84;5026755;28;20065;-42
2021/12/01 04:26:03;;;;;;;1.00;0.83;;;5.70;97.80;;;6.01;68.47;96711.97;5027250;28;20049;-42
2021/12/01 04:28:31;;;;;;;1.40;1.00;;;5.80;97.70;;;5.99;67.63;96710.44;5026792;28;20053;-41
2021/12/01 04:30:59;;;;;;;1.17;0.77;;;5.80;97.70;;;5.98;68.34;96706.97;5028266;28;20057;-42
2021/12/01 04:33:27;;;;;;;0.97;0.83;;;5.70;97.90;;;6.04;68.13;96700.25;5026576;28;20049;-42
2021/12/01 04:35:56;;;;;;;1.40;0.80;;;5.80;97.80;;;6.02;68.28;96687.19;5026951;28;20049;-42
2021/12/01 04:38:24;;;;;;;1.50;1.00;;;5.90;97.90;;;6.07;68.17;96689.38;5029376;28;20484;-41
2021/12/01 04:40:51;;;;;;;1.83;1.53;;;5.90;97.70;;;6.10;67.77;96676.66;5024198;28;20061;-41
2021/12/01 04:43:19;;;;;;;1.07;0.80;;;5.90;97.40;;;6.08;68.45;96664.59;5030273;28;20063;-42
2021/12/01 04:45:52;;;;;;;1.80;1.17;;;6.00;97.20;;;6.09;68.53;96661.00;5030761;28;20067;-42
2021/12/01 04:48:20;;;;;;;1.77;1.00;;;5.90;97.00;;;6.06;68.47;96648.91;5028917;28;20051;-41
2021/12/01 04:50:48;;;;;;;1.30;0.83;;;5.90;97.30;;;6.11;68.36;96643.16;5029596;28;20051;-41
2021/12/01 04:53:16;;;;;;;1.43;0.93;;;5.90;97.20;;;6.06;67.86;96627.75;5029498;28;20233;-42
2021/12/01 04:55:45;;;;;;;1.80;1.13;;;5.90;97.40;;;6.09;68.15;96622.16;5030563;28;20041;-42
2021/12/01 04:58:13;;;;;;;1.57;0.90;;;5.90;97.30;;;6.10;68.46;96623.00;5029306;28;20061;-42
2021/12/01 05:00:41;;;;;;;2.20;1.57;;;5.90;97.50;;;6.11;67.79;96616.72;5021700;28;20053;-42
2021/12/01 05:03:09;;;;;;;1.70;1.33;;;5.90;97.50;;;6.14;68.31;96611.09;5028921;28;20373;-41
2021/12/01 05:05:50;;;;;;;2.60;1.00;;;6.00;97.50;;;6.16;68.13;96618.88;5027513;28;20059;-42
2021/12/01 05:08:20;;;;;;;1.57;1.10;;;6.00;97.50;;;6.17;68.12;96607.34;5030395;28;20052;-42
2021/12/01 05:10:49;;;;;;;1.70;1.00;;;6.00;98.20;;;6.18;67.99;96614.28;5029412;28;20056;-42
2021/12/01 05:13:17;;;;;;;1.80;1.20;;;6.00;97.60;;;6.19;68.48;96614.13;5028273;28;20075;-42
2021/12/01 05:15:46;;;;;;;1.20;1.10;;;6.00;97.50;;;6.22;68.03;96610.31;5028937;28;20057;-42
2021/12/01 05:18:14;;;;;;;1.43;1.10;;;6.00;97.50;;;6.23;68.42;96607.53;5028880;28;20064;-41
2021/12/01 05:20:42;;;;;;;0.60;0.60;;;6.10;97.50;;;6.26;67.75;96603.72;5028821;28;20117;-41
2021/12/01 05:23:12;;;;;;;0.63;0.60;;;6.10;97.10;;;6.29;67.95;96603.41;5027987;28;20065;-42
2021/12/01 05:25:45;;;;;;;0.80;0.73;;;6.20;96.70;;;6.32;68.17;96595.19;5029092;28;20049;-42
2021/12/01 05:28:14;;;;;;;1.80;0.90;;;6.30;96.50;;;6.37;68.10;96590.22;5024643;28;20052;-42
2021/12/01 05:30:42;;;;;;;1.63;0.90;;;6.30;96.20;;;6.43;67.81;96573.72;5020112;28;20053;-42
2021/12/01 05:33:11;;;;;;;1.13;0.70;;;6.40;96.10;;;6.49;67.83;96574.88;5029610;28;20057;-41
2021/12/01 05:35:46;;;;;;;1.50;0.63;;;6.50;96.30;;;6.55;68.16;96568.94;5029999;28;20044;-42
2021/12/01 05:38:15;;;;;;;1.27;0.60;;;6.50;96.00;;;6.58;67.84;96562.53;5024531;28;20310;-42
2021/12/01 05:40:46;;;;;;;1.30;1.03;;;6.50;95.80;;;6.60;68.07;96565.81;5020992;28;20250;-42
2021/12/01 05:43:15;;;;;;;0.97;0.70;;;6.50;95.90;;;6.56;67.67;96561.84;5027766;28;20265;-42
2021/12/01 05:45:45;;;;;;;1.23;0.90;;;6.50;95.30;;;6.58;67.66;96559.88;5029397;28;20056;-42
2021/12/01 05:48:15;;;;;;;1.63;1.53;;;6.50;95.50;;;6.56;67.54;96565.31;5028565;28;20050;-42
2021/12/01 05:50:43;;;;;;;1.20;0.87;;;6.50;95.70;;;6.53;67.54;96549.75;5028614;28;20057;-42
2021/12/01 05:53:13;;;;;;;0.97;0.80;;;6.40;95.60;;;6.49;67.28;96554.56;5028283;28;20056;-42
2021/12/01 05:55:42;;;;;;;1.43;1.00;;;6.30;96.00;;;6.49;67.20;96551.09;5029281;28;20049;-42
2021/12/01 05:58:10;;;;;;;1.50;1.20;;;6.30;96.20;;;6.45;67.56;96547.94;5027772;28;20498;-42
2021/12/01 06:00:38;;;;;;;1.97;1.47;;;6.20;96.20;;;6.43;67.73;96546.44;5029144;28;20247;-42
2021/12/01 06:03:06;;;;;;;2.27;1.60;;;6.20;96.40;;;6.41;67.68;96536.03;5029593;28;20063;-42
2021/12/01 06:05:34;;;;;;;1.47;0.80;;;6.20;96.30;;;6.37;67.04;96531.25;5028735;28;20244;-42
2021/12/01 06:08:02;;;;;;;1.67;1.00;;;6.20;95.50;;;6.35;67.59;96518.19;5028296;28;20209;-42
2021/12/01 06:10:30;;;;;;;2.47;1.67;;;6.30;95.50;;;6.38;67.71;96509.09;5029659;28;20116;-42
2021/12/01 06:12:58;;;;;;;2.47;1.60;;;6.30;95.90;;;6.39;67.07;96506.28;5028504;28;20059;-42
2021/12/01 06:15:26;;;;;;;4.50;3.10;;;6.30;95.10;;;6.38;67.18;96502.00;5025643;28;20360;-42
2021/12/01 06:17:57;;;;;;;2.30;1.40;;;6.30;95.20;;;6.40;67.39;96500.03;5026729;28;20057;-42
2021/12/01 06:20:27;;;;;;;4.20;3.53;;;6.30;95.00;;;6.42;67.01;96497.22;5026674;28;20365;-42
2021/12/01 06:22:54;;;;;;;1.83;1.23;;;6.30;94.80;;;6.43;67.21;96496.22;5020702;28;20053;-42
2021/12/01 06:25:22;;;;;;;2.40;1.87;;;6.30;94.70;;;6.43;66.75;96489.09;5027567;28;20267;-42
2021/12/01 06:27:54;;;;;;;4.03;2.20;;;6.40;94.70;;;6.44;66.60;96496.06;5027553;28;20081;-42
2021/12/01 06:30:25;;;;;;;2.00;1.63;;;6.40;94.50;;;6.44;66.93;96489.97;5027372;28;20359;-42
2021/12/01 06:32:53;;;;;;;2.07;1.67;;;6.40;94.00;;;6.41;66.58;96485.81;5037377;28;20080;-42
2021/12/01 06:35:21;;;;;;;1.77;1.53;;;6.30;94.10;;;6.40;67.14;96488.63;5027502;28;20057;-42
2021/12/01 06:37:55;;;;;;;0.80;0.70;;;6.30;94.20;;;6.39;67.15;96479.03;5027610;28;20236;-42
2021/12/01 06:40:25;;;;;;;1.02;0.90;;;6.30;94.10;;;6.39;67.14;96473.75;5028428;28;20379;-42
2021/12/01 06:42:53;;;;;;;1.23;0.70;;;6.30;93.90;;;6.35;66.74;96475.06;5027029;28;20253;-42
2021/12/01 06:45:22;;;;;;;0.83;0.80;;;6.30;93.70;;;6.38;66.36;96466.78;5028240;28;20049;-41
2021/12/01 06:47:50;;;;;;;1.00;0.90;;;6.40;93.40;;;6.40;66.30;96467.47;5028142;28;20079;-42
2021/12/01 06:50:18;;;;;;;4.83;0.70;;;6.40;92.50;;;6.44;66.62;96464.34;5027866;28;20060;-42
2021/12/01 06:52:46;;;;;;;1.00;0.80;;;6.50;93.40;;;6.43;66.32;96462.66;5028130;28;20354;-41
2021/12/01 06:55:14;;;;;;;0.50;0.50;;;6.40;92.90;;;6.48;66.82;96460.38;5027836;28;20056;-41
2021/12/01 06:57:42;;;;;;;1.60;0.90;;;6.50;93.10;;;6.48;66.13;96446.31;5027542;28;20045;-41
2021/12/01 07:00:13;;;;;;;1.43;1.10;;;6.50;92.50;;;6.47;65.72;96445.47;5027479;28;20060;-41
2021/12/01 07:02:41;;;;;;;0.87;0.53;;;6.50;92.50;;;6.51;66.11;96443.34;5026101;28;20053;-41
2021/12/01 07:05:11;;;;;;;1.23;0.63;;;6.50;92.20;;;6.47;65.76;96445.47;5028221;28;20049;-42
2021/12/01 07:07:39;;;;;;;0.67;0.60;;;6.50;91.80;;;6.53;65.85;96440.53;5027250;28;20083;-41
2021/12/01 07:10:10;;;;;;;0.50;0.50;;;6.50;92.50;;;6.58;65.72;96441.69;5026669;28;20061;-42
2021/12/01 07:12:40;;;;;;;1.47;0.50;;;6.60;91.80;;;6.57;65.73;96428.63;5026923;28;20049;-41
2021/12/01 07:15:09;;;;;;;0.47;0.40;;;6.70;91.20;;;6.59;65.49;96430.13;5027557;28;20079;-41
2021/12/01 07:17:39;;;;;;;1.23;0.87;;;6.70;91.10;;;6.64;65.96;96422.50;5028981;28;20225;-41
2021/12/01 07:20:08;;;;;;;1.37;0.80;;;6.70;91.10;;;6.66;65.68;96427.63;5046534;28;20060;-41
2021/12/01 07:22:36;;;;;;;2.67;1.33;;;6.70;91.00;;;6.69;65.94;96422.03;5047355;28;20075;-42
2021/12/01 07:25:05;;;;;;;1.90;1.00;;;6.70;90.80;;;6.70;65.38;96416.56;5046185;28;20060;-42
2021/12/01 07:27:34;;;;;;;1.20;0.97;;;6.70;91.00;;;6.70;65.51;96418.38;5046164;28;20053;-41
2021/12/01 07:30:03;;;;;;;1.53;0.90;;;6.80;91.30;;;6.73;65.30;96409.28;5056051;28;20051;-41
2021/12/01 07:32:31;;;;;;;0.83;0.73;;;6.80;90.80;;;6.75;65.71;96405.50;5046328;28;20057;-41
2021/12/01 07:34:59;;;;;;;2.03;0.80;;;6.80;91.20;;;6.78;65.58;96399.03;5046529;28;20358;-42
2021/12/01 07:37:27;;;;;;;2.77;1.23;;;6.80;91.40;;;6.77;65.85;96373.59;5045950;28;20045;-41
2021/12/01 07:39:55;;;;;;;3.57;1.30;;;6.80;90.70;;;6.82;65.34;96371.25;5046764;28;20052;-41
2021/12/01 07:42:23;;;;;;;4.03;2.40;;;6.80;91.00;;;6.82;65.87;96366.78;5044589;28;20057;-42
2021/12/01 07:44:51;;;;;;;2.50;1.40;;;6.80;90.50;;;6.82;65.97;96364.13;5044663;28;20057;-42
2021/12/01 07:47:19;;;;;;;3.67;1.93;;;6.80;90.90;;;6.84;65.62;96354.22;5046648;28;20059;-41
2021/12/01 07:49:47;;;;;;;3.20;2.00;;;6.80;91.00;;;6.87;65.45;96353.06;5047115;28;20071;-41
2021/12/01 07:52:15;;;;;;;2.20;1.43;;;6.90;91.30;;;6.87;65.58;96351.22;5046572;28;20047;-41
2021/12/01 07:54:43;;;;;;;3.27;1.50;;;6.90;90.30;;;6.86;65.74;96333.72;5045766;28;20055;-41
2021/12/01 07:57:11;;;;;;;2.63;1.50;;;6.90;90.70;;;6.88;65.35;96330.88;5046147;28;20049;-41
2021/12/01 07:59:39;;;;;;;3.37;1.57;;;6.90;90.40;;;6.93;65.63;96322.44;5046100;28;20064;-41
2021/12/01 08:02:07;;;;;;;3.83;2.20;;;6.90;90.50;;;6.94;65.49;96317.00;5046483;28;20255;-41
2021/12/01 08:04:35;;;;;;;2.33;1.20;;;6.90;90.60;;;6.96;65.24;96309.72;5047143;28;20055;-41
2021/12/01 08:07:03;;;;;;;1.63;1.00;;;7.00;90.20;;;7.00;65.36;96311.00;5046892;28;20057;-41
2021/12/01 08:09:31;;;;;;;1.23;0.90;;;7.00;89.90;;;7.04;65.29;96301.72;5047472;28;20053;-41
2021/12/01 08:11:59;;;;;;;1.97;0.87;;;7.10;89.90;;;7.03;65.10;96307.19;5047399;28;20267;-41
2021/12/01 08:14:27;;;;;;;1.20;0.90;;;7.10;88.80;;;7.07;65.63;96292.59;5050173;28;20045;-41
2021/12/01 08:16:55;;;;;;;2.07;0.80;;;7.10;89.70;;;7.08;65.26;96289.81;5051500;28;20049;-41
2021/12/01 08:19:22;;;;;;;1.57;0.70;;;7.10;89.50;;;7.12;65.21;96278.88;5050792;28;20344;-41
2021/12/01 08:21:50;;;;;;;1.77;1.07;;;7.20;89.00;;;7.14;65.09;96279.53;5050900;28;20239;-41
2021/12/01 08:24:19;;;;;;;1.80;1.10;;;7.20;89.20;;;7.15;65.32;96274.03;5050304;28;20079;-41
2021/12/01 08:26:48;;;;;;;0.73;0.50;;;7.20;89.40;;;7.19;65.19;96264.78;5049752;28;20053;-41
2021/12/01 08:29:18;;;;;;;1.73;0.90;;;7.20;89.00;;;7.24;65.34;96266.91;5046568;28;20049;-40
2021/12/01 08:31:46;;;;;;;1.33;0.90;;;7.30;89.40;;;7.26;65.11;96262.25;5049713;28;20061;-40
2021/12/01 08:34:14;;;;;;;2.13;1.20;;;7.30;89.90;;;7.28;65.50;96260.25;5049556;28;20065;-40
2021/12/01 08:36:42;;;;;;;1.37;0.83;;;7.30;89.00;;;7.32;65.49;96248.31;5049266;28;20063;-41
2021/12/01 08:39:10;;;;;;;3.00;1.73;;;7.50;89.30;;;7.35;65.43;96253.28;5050151;28;20258;-41
2021/12/01 08:41:38;;;;;;;2.43;1.30;;;7.50;89.60;;;7.37;65.49;96250.44;5050378;28;20253;-41
2021/12/01 08:44:08;;;;;;;3.17;1.63;;;7.50;89.50;;;7.39;65.30;96238.69;5050941;28;20728;-40
2021/12/01 08:46:36;;;;;;;2.07;1.50;;;7.50;89.50;;;7.43;65.76;96242.63;5050528;28;20055;-40
2021/12/01 08:49:04;;;;;;;1.40;1.00;;;7.60;89.30;;;7.51;65.46;96243.56;5049546;28;20065;-40
2021/12/01 08:51:33;;;;;;;3.13;1.47;;;7.70;88.90;;;7.53;65.70;96236.28;5049934;28;20409;-40
2021/12/01 08:54:00;;;;;;;1.87;1.20;;;7.70;89.40;;;7.62;65.83;96233.38;5048666;28;20059;-41
2021/12/01 08:56:28;;;;;;;2.03;0.83;;;7.80;89.60;;;7.62;65.51;96228.09;5049357;28;20051;-40
2021/12/01 08:58:56;;;;;;;4.00;1.47;;;7.80;89.10;;;7.69;65.64;96225.53;5047034;28;20053;-41
2021/12/01 09:01:24;;;;;;;1.90;1.30;;;7.90;89.40;;;7.77;65.65;96219.34;5036630;28;20056;-41
2021/12/01 09:03:52;;;;;;;1.07;0.70;;;7.90;89.10;;;7.80;65.36;96229.59;5038030;28;20059;-41
2021/12/01 09:06:20;;;;;;;1.57;0.93;;;8.00;89.10;;;7.86;65.64;96220.94;5039126;28;20057;-40
2021/12/01 09:08:48;;;;;;;1.63;0.80;;;8.10;89.40;;;7.88;65.46;96213.63;5036881;28;20061;-40
2021/12/01 09:11:16;;;;;;;2.07;1.10;;;8.10;89.10;;;7.85;65.37;96206.88;5040063;28;20375;-39
2021/12/01 09:13:45;;;;;;;2.20;1.30;;;8.10;88.80;;;7.93;65.40;96203.34;5035084;28;20057;-40
2021/12/01 09:16:22;;;;;;;1.90;0.87;;;8.10;89.40;;;7.96;65.25;96205.59;5035719;28;20059;-40
2021/12/01 09:18:50;;;;;;;1.83;0.80;;;8.10;89.20;;;8.00;65.50;96211.38;5027845;28;20059;-40
2021/12/01 09:21:20;;;;;;;1.23;0.97;;;8.20;88.70;;;7.97;64.89;96214.38;5028710;28;20065;-40
2021/12/01 09:23:49;;;;;;;2.77;1.60;;;8.20;88.40;;;8.00;65.26;96206.88;5029657;28;20064;-40
2021/12/01 09:26:16;;;;;;;1.80;0.90;;;8.20;88.50;;;8.00;65.32;96196.28;5029185;28;20258;-40
2021/12/01 09:28:45;;;;;;;1.13;0.83;;;8.20;88.60;;;8.01;65.21;96195.28;5028094;28;20061;-40
2021/12/01 09:31:13;;;;;;;0.40;0.40;;;8.20;88.50;;;7.98;64.58;96193.00;5029388;28;20056;-40
2021/12/01 09:33:41;;;;;;;0.63;0.50;;;8.20;87.70;;;7.97;65.01;96186.06;5028194;28;20064;-40
2021/12/01 09:36:09;;;;;;;1.23;0.40;;;8.20;87.30;;;7.96;64.72;96179.09;5028387;28;20045;-41
2021/12/01 09:38:37;;;;;;;1.80;1.30;;;8.20;87.90;;;7.93;64.64;96176.00;5028212;28;20057;-40
2021/12/01 09:41:05;;;;;;;0.63;0.57;;;8.20;87.20;;;7.99;65.06;96164.69;5030158;28;20059;-40
2021/12/01 09:43:33;;;;;;;1.80;0.50;;;8.20;86.60;;;8.01;64.92;96154.72;5029549;28;20060;-40
2021/12/01 09:46:05;;;;;;;0.30;0.30;;;8.20;87.00;;;8.04;64.71;96141.09;5010905;28;20053;-40
2021/12/01 09:48:35;;;;;;;1.07;0.60;;;8.20;87.00;;;8.06;64.88;96131.97;5027104;28;20071;-40
2021/12/01 09:51:15;;;;;;;0.60;0.30;;;8.20;87.70;;;8.04;64.30;96133.97;5028144;28;20061;-40
2021/12/01 09:53:45;;;;;;;0.40;0.40;;;8.20;86.80;;;8.05;64.39;96134.81;5028119;28;20347;-40
2021/12/01 09:56:13;;;;;;;0.30;0.30;;;8.30;86.80;;;8.14;64.70;96116.97;5027797;28;20251;-40
2021/12/01 09:58:43;;;;;;;2.10;0.40;;;8.30;87.20;;;8.14;64.77;96115.13;5029075;28;20235;-40
2021/12/01 10:01:17;;;;;;;0.87;0.60;;;8.30;86.80;;;8.17;64.25;96120.09;5029365;28;20057;-40
2021/12/01 10:03:46;;;;;;;0.83;0.60;;;8.30;85.80;;;8.16;64.46;96115.81;5028061;28;20396;-40
2021/12/01 10:06:22;;;;;;;2.20;1.10;;;8.40;86.80;;;8.15;63.92;96103.53;5028214;28;20052;-40
2021/12/01 10:08:57;;;;;;;1.10;0.40;;;8.40;86.20;;;8.20;64.07;96109.13;5028510;28;20064;-40
2021/12/01 10:11:30;;;;;;;2.03;0.50;;;8.40;86.20;;;8.25;64.22;96101.41;5028295;28;20348;-41
2021/12/01 10:14:17;;;;;;;1.42;0.82;;;8.40;86.10;;;8.23;63.63;96100.78;5010656;28;20053;-40
2021/12/01 10:16:50;;;;;;;1.10;0.63;;;8.40;84.70;;;8.19;64.13;96101.34;5029422;28;20363;-41
2021/12/01 10:19:18;;;;;;;0.45;0.30;;;8.40;85.60;;;8.18;64.03;96089.09;5030612;28;20049;-41
2021/12/01 10:21:47;;;;;;;0.67;0.40;;;8.40;85.10;;;8.25;64.22;96088.16;5037140;28;20259;-41
2021/12/01 10:24:23;;;;;;;1.37;0.60;;;8.50;85.80;;;8.26;63.92;96079.22;5037579;28;20050;-41
2021/12/01 10:26:57;;;;;;;0.77;0.60;;;8.50;85.70;;;8.32;63.90;96061.75;5039093;28;20063;-41
2021/12/01 10:29:50;;;;;;;0.43;0.43;;;8.50;85.50;;;8.37;63.47;96067.28;5038166;28;20049;-41
2021/12/01 10:32:20;;;;;;;0.80;0.50;;;8.60;84.90;;;8.33;63.66;96044.81;5039152;28;20049;-41
2021/12/01 10:34:58;;;;;;;0.63;0.60;;;8.60;84.90;;;8.43;64.08;96057.81;5038394;28;20045;-41
2021/12/01 10:37:30;;;;;;;0.60;0.40;;;8.60;85.30;;;8.44;63.76;96040.91;5039393;28;20047;-46
2021/12/01 10:40:04;;;;;;;2.73;0.43;;;8.60;84.70;;;8.42;63.40;96040.28;5037856;28;20049;-44
2021/12/01 10:42:32;;;;;;;0.40;0.30;;;8.70;84.50;;;8.50;63.84;96042.00;5037494;28;20057;-46
2021/12/01 10:45:06;;;;;;;2.23;0.50;;;8.70;84.70;;;8.58;64.00;96033.91;5036534;28;20045;-48